Summit Lake, Canada
Current Conditions -  °F | °C
As of 12:00 PM on Friday 24 Oct 2014 (Local Time) from CYXS Reporting Station
Clear Clear  
Wind Chill: 38°   Ceiling: Unl
Heat Index: 45°   Visibility: 9mi
Dew Point: 34°   Wind: 13mph
Humidity: 66%   Direction: 200°SSW
Pressure: 29.99"   Gusts: 18mph
Location:  54.28°N, 122.63°W
Report Text: CYXS 241900Z AUTO 20011G16KT 9SM CLR 07/01 A2999 RMK SLP184
Loading
Personal Weather Stations






























Interactive Weather Map
Tropical Storm Tracking
New forecast layout! Learn more

10-Day Weather Forecast

Advertisements
Track Severe Weather on mobile